sensor_id;sensor_type;location;lat;lon;timestamp;pressure;altitude;pressure_sealevel;temperature;humidity
55733;BME280;41637;52.364;9.910;2023-04-08T00:00:55;101499.77;;;6.37;77.70
55733;BME280;41637;52.364;9.910;2023-04-08T00:03:22;101505.13;;;6.38;77.86
55733;BME280;41637;52.364;9.910;2023-04-08T00:05:49;101506.91;;;6.36;78.05
55733;BME280;41637;52.364;9.910;2023-04-08T00:08:16;101505.67;;;6.34;77.88
55733;BME280;41637;52.364;9.910;2023-04-08T00:10:42;101503.79;;;6.33;78.14
55733;BME280;41637;52.364;9.910;2023-04-08T00:13:09;101500.65;;;6.33;78.17
55733;BME280;41637;52.364;9.910;2023-04-08T00:15:36;101502.06;;;6.33;78.17
55733;BME280;41637;52.364;9.910;2023-04-08T00:18:02;101506.20;;;6.32;78.19
55733;BME280;41637;52.364;9.910;2023-04-08T00:20:29;101505.27;;;6.30;78.30
55733;BME280;41637;52.364;9.910;2023-04-08T00:22:56;101506.34;;;6.30;78.28
55733;BME280;41637;52.364;9.910;2023-04-08T00:25:22;101511.33;;;6.29;78.41
55733;BME280;41637;52.364;9.910;2023-04-08T00:27:51;101513.92;;;6.28;78.54
55733;BME280;41637;52.364;9.910;2023-04-08T00:30:17;101514.61;;;6.28;78.41
55733;BME280;41637;52.364;9.910;2023-04-08T00:32:45;101514.33;;;6.27;78.56
55733;BME280;41637;52.364;9.910;2023-04-08T00:35:12;101517.36;;;6.27;78.77
55733;BME280;41637;52.364;9.910;2023-04-08T00:37:39;101514.20;;;6.24;78.74
55733;BME280;41637;52.364;9.910;2023-04-08T00:40:06;101508.73;;;6.23;79.08
55733;BME280;41637;52.364;9.910;2023-04-08T00:42:33;101511.94;;;6.22;79.41
55733;BME280;41637;52.364;9.910;2023-04-08T00:44:59;101508.38;;;6.20;79.57
55733;BME280;41637;52.364;9.910;2023-04-08T00:47:26;101511.80;;;6.22;79.82
55733;BME280;41637;52.364;9.910;2023-04-08T00:49:52;101510.70;;;6.24;80.05
55733;BME280;41637;52.364;9.910;2023-04-08T00:52:19;101508.67;;;6.25;80.29
55733;BME280;41637;52.364;9.910;2023-04-08T00:54:45;101505.83;;;6.24;80.18
55733;BME280;41637;52.364;9.910;2023-04-08T00:57:12;101503.98;;;6.21;80.49
55733;BME280;41637;52.364;9.910;2023-04-08T00:59:40;101508.70;;;6.17;80.87
55733;BME280;41637;52.364;9.910;2023-04-08T01:05:06;101505.34;;;6.15;81.06
55733;BME280;41637;52.364;9.910;2023-04-08T01:07:36;101508.60;;;6.16;81.14
55733;BME280;41637;52.364;9.910;2023-04-08T01:12:54;101511.92;;;6.13;81.48
55733;BME280;41637;52.364;9.910;2023-04-08T01:15:23;101511.12;;;6.12;81.39
55733;BME280;41637;52.364;9.910;2023-04-08T01:17:53;101515.39;;;6.12;81.49
55733;BME280;41637;52.364;9.910;2023-04-08T01:20:21;101518.55;;;6.12;81.69
55733;BME280;41637;52.364;9.910;2023-04-08T01:23:14;101512.90;;;6.08;82.33
55733;BME280;41637;52.364;9.910;2023-04-08T01:25:53;101512.23;;;5.94;83.86
55733;BME280;41637;52.364;9.910;2023-04-08T01:28:22;101517.89;;;5.83;84.24
55733;BME280;41637;52.364;9.910;2023-04-08T01:30:50;101510.33;;;5.81;83.85
55733;BME280;41637;52.364;9.910;2023-04-08T01:33:18;101510.56;;;5.80;84.39
55733;BME280;41637;52.364;9.910;2023-04-08T01:35:45;101508.17;;;5.79;84.45
55733;BME280;41637;52.364;9.910;2023-04-08T01:38:15;101506.45;;;5.79;84.60
55733;BME280;41637;52.364;9.910;2023-04-08T01:40:44;101502.39;;;5.77;84.73
55733;BME280;41637;52.364;9.910;2023-04-08T01:43:14;101499.06;;;5.77;84.63
55733;BME280;41637;52.364;9.910;2023-04-08T01:45:45;101490.92;;;5.76;84.98
55733;BME280;41637;52.364;9.910;2023-04-08T01:48:14;101491.67;;;5.72;85.36
55733;BME280;41637;52.364;9.910;2023-04-08T01:50:42;101490.23;;;5.71;85.20
55733;BME280;41637;52.364;9.910;2023-04-08T01:53:10;101488.64;;;5.71;85.29
55733;BME280;41637;52.364;9.910;2023-04-08T01:55:39;101485.66;;;5.73;85.29
55733;BME280;41637;52.364;9.910;2023-04-08T01:58:06;101486.89;;;5.76;85.24
55733;BME280;41637;52.364;9.910;2023-04-08T02:00:34;101489.48;;;5.76;85.85
55733;BME280;41637;52.364;9.910;2023-04-08T02:03:04;101491.63;;;5.73;85.99
55733;BME280;41637;52.364;9.910;2023-04-08T02:05:33;101494.14;;;5.72;86.02
55733;BME280;41637;52.364;9.910;2023-04-08T02:07:59;101493.63;;;5.70;86.47
55733;BME280;41637;52.364;9.910;2023-04-08T02:10:26;101494.19;;;5.65;86.95
55733;BME280;41637;52.364;9.910;2023-04-08T02:12:54;101496.60;;;5.66;86.37
55733;BME280;41637;52.364;9.910;2023-04-08T02:15:21;101493.63;;;5.68;86.31
55733;BME280;41637;52.364;9.910;2023-04-08T02:17:54;101491.63;;;5.69;86.17
55733;BME280;41637;52.364;9.910;2023-04-08T02:20:26;101487.30;;;5.70;86.17
55733;BME280;41637;52.364;9.910;2023-04-08T02:25:34;101492.30;;;5.71;86.13
55733;BME280;41637;52.364;9.910;2023-04-08T02:28:05;101492.14;;;5.73;86.21
55733;BME280;41637;52.364;9.910;2023-04-08T02:30:35;101494.16;;;5.77;86.32
55733;BME280;41637;52.364;9.910;2023-04-08T02:33:03;101497.79;;;5.78;86.26
55733;BME280;41637;52.364;9.910;2023-04-08T02:35:31;101497.83;;;5.79;86.36
55733;BME280;41637;52.364;9.910;2023-04-08T02:37:58;101497.52;;;5.79;86.37
55733;BME280;41637;52.364;9.910;2023-04-08T02:40:30;101494.52;;;5.79;86.26
55733;BME280;41637;52.364;9.910;2023-04-08T02:42:57;101499.52;;;5.82;86.20
55733;BME280;41637;52.364;9.910;2023-04-08T02:45:29;101500.87;;;5.83;86.21
55733;BME280;41637;52.364;9.910;2023-04-08T02:47:58;101499.88;;;5.82;86.14
55733;BME280;41637;52.364;9.910;2023-04-08T02:50:26;101503.30;;;5.83;86.07
55733;BME280;41637;52.364;9.910;2023-04-08T02:52:53;101513.22;;;5.82;86.43
55733;BME280;41637;52.364;9.910;2023-04-08T02:55:21;101520.00;;;5.81;86.30
55733;BME280;41637;52.364;9.910;2023-04-08T02:57:48;101515.23;;;5.79;86.38
55733;BME280;41637;52.364;9.910;2023-04-08T03:00:15;101514.52;;;5.77;86.76
55733;BME280;41637;52.364;9.910;2023-04-08T03:02:42;101511.87;;;5.75;86.85
55733;BME280;41637;52.364;9.910;2023-04-08T03:05:09;101516.56;;;5.73;86.90
55733;BME280;41637;52.364;9.910;2023-04-08T03:07:36;101513.89;;;5.71;87.07
55733;BME280;41637;52.364;9.910;2023-04-08T03:10:03;101516.31;;;5.69;87.28
55733;BME280;41637;52.364;9.910;2023-04-08T03:12:30;101516.14;;;5.69;87.14
55733;BME280;41637;52.364;9.910;2023-04-08T03:14:56;101517.79;;;5.73;87.05
55733;BME280;41637;52.364;9.910;2023-04-08T03:17:23;101519.98;;;5.74;87.29
55733;BME280;41637;52.364;9.910;2023-04-08T03:19:49;101521.46;;;5.76;87.14
55733;BME280;41637;52.364;9.910;2023-04-08T03:22:18;101522.26;;;5.77;87.52
55733;BME280;41637;52.364;9.910;2023-04-08T03:24:44;101521.08;;;5.73;87.51
55733;BME280;41637;52.364;9.910;2023-04-08T03:27:11;101524.19;;;5.74;87.54
55733;BME280;41637;52.364;9.910;2023-04-08T03:29:38;101530.13;;;5.77;87.52
55733;BME280;41637;52.364;9.910;2023-04-08T03:32:05;101532.50;;;5.78;87.53
55733;BME280;41637;52.364;9.910;2023-04-08T03:34:33;101535.15;;;5.78;87.69
55733;BME280;41637;52.364;9.910;2023-04-08T03:37:00;101532.58;;;5.79;87.40
55733;BME280;41637;52.364;9.910;2023-04-08T03:39:27;101533.12;;;5.83;87.45
55733;BME280;41637;52.364;9.910;2023-04-08T03:41:53;101530.86;;;5.85;87.67
55733;BME280;41637;52.364;9.910;2023-04-08T03:44:20;101528.31;;;5.86;87.50
55733;BME280;41637;52.364;9.910;2023-04-08T03:46:46;101530.80;;;5.86;87.86
55733;BME280;41637;52.364;9.910;2023-04-08T03:49:13;101528.33;;;5.86;87.86
55733;BME280;41637;52.364;9.910;2023-04-08T03:51:39;101527.70;;;5.83;88.34
55733;BME280;41637;52.364;9.910;2023-04-08T03:54:06;101526.04;;;5.82;88.51
55733;BME280;41637;52.364;9.910;2023-04-08T03:56:34;101525.58;;;5.79;88.91
55733;BME280;41637;52.364;9.910;2023-04-08T03:59:00;101523.90;;;5.76;89.11
55733;BME280;41637;52.364;9.910;2023-04-08T04:01:27;101520.09;;;5.73;89.19
55733;BME280;41637;52.364;9.910;2023-04-08T04:03:55;101524.67;;;5.75;89.32
55733;BME280;41637;52.364;9.910;2023-04-08T04:06:22;101527.23;;;5.76;89.46
55733;BME280;41637;52.364;9.910;2023-04-08T04:08:48;101525.36;;;5.77;89.44
55733;BME280;41637;52.364;9.910;2023-04-08T04:11:15;101526.89;;;5.78;89.61
55733;BME280;41637;52.364;9.910;2023-04-08T04:13:42;101532.23;;;5.79;89.51
55733;BME280;41637;52.364;9.910;2023-04-08T04:16:09;101533.79;;;5.79;90.09
55733;BME280;41637;52.364;9.910;2023-04-08T04:18:35;101536.66;;;5.79;89.72
55733;BME280;41637;52.364;9.910;2023-04-08T04:21:04;101541.38;;;5.81;89.76
55733;BME280;41637;52.364;9.910;2023-04-08T04:23:32;101545.08;;;5.83;89.99
55733;BME280;41637;52.364;9.910;2023-04-08T04:25:58;101549.16;;;5.83;89.89
55733;BME280;41637;52.364;9.910;2023-04-08T04:28:25;101552.71;;;5.82;90.33
55733;BME280;41637;52.364;9.910;2023-04-08T04:30:51;101554.08;;;5.80;90.56
55733;BME280;41637;52.364;9.910;2023-04-08T04:33:21;101559.45;;;5.81;90.32
55733;BME280;41637;52.364;9.910;2023-04-08T04:35:48;101556.16;;;5.81;90.92
55733;BME280;41637;52.364;9.910;2023-04-08T04:38:14;101559.39;;;5.80;90.72
55733;BME280;41637;52.364;9.910;2023-04-08T04:40:41;101554.73;;;5.81;90.71
55733;BME280;41637;52.364;9.910;2023-04-08T04:43:07;101557.27;;;5.84;90.67
55733;BME280;41637;52.364;9.910;2023-04-08T04:45:34;101562.55;;;5.86;90.93
55733;BME280;41637;52.364;9.910;2023-04-08T04:48:01;101567.77;;;5.87;90.78
55733;BME280;41637;52.364;9.910;2023-04-08T04:50:29;101566.80;;;5.84;91.23
55733;BME280;41637;52.364;9.910;2023-04-08T04:52:55;101569.56;;;5.82;91.17
55733;BME280;41637;52.364;9.910;2023-04-08T04:55:22;101577.56;;;5.81;91.64
55733;BME280;41637;52.364;9.910;2023-04-08T04:57:49;101574.52;;;5.79;91.60
55733;BME280;41637;52.364;9.910;2023-04-08T05:00:15;101580.15;;;5.79;91.59
55733;BME280;41637;52.364;9.910;2023-04-08T05:02:42;101579.95;;;5.79;91.90
55733;BME280;41637;52.364;9.910;2023-04-08T05:05:09;101581.42;;;5.79;92.42
55733;BME280;41637;52.364;9.910;2023-04-08T05:07:36;101587.09;;;5.78;92.26
55733;BME280;41637;52.364;9.910;2023-04-08T05:10:04;101591.23;;;5.81;92.17
55733;BME280;41637;52.364;9.910;2023-04-08T05:12:32;101590.30;;;5.84;91.97
55733;BME280;41637;52.364;9.910;2023-04-08T05:14:58;101593.42;;;5.86;91.88
55733;BME280;41637;52.364;9.910;2023-04-08T05:17:25;101601.10;;;5.89;91.84
55733;BME280;41637;52.364;9.910;2023-04-08T05:19:52;101601.49;;;5.91;91.77
55733;BME280;41637;52.364;9.910;2023-04-08T05:22:18;101601.66;;;5.89;92.14
55733;BME280;41637;52.364;9.910;2023-04-08T05:24:45;101595.91;;;5.88;92.14
55733;BME280;41637;52.364;9.910;2023-04-08T05:27:11;101600.91;;;5.83;92.67
55733;BME280;41637;52.364;9.910;2023-04-08T05:29:38;101597.11;;;5.82;92.13
55733;BME280;41637;52.364;9.910;2023-04-08T05:32:04;101594.42;;;5.85;92.26
55733;BME280;41637;52.364;9.910;2023-04-08T05:34:31;101595.52;;;5.89;92.13
55733;BME280;41637;52.364;9.910;2023-04-08T05:36:57;101596.65;;;5.88;92.65
55733;BME280;41637;52.364;9.910;2023-04-08T05:39:24;101598.60;;;5.86;92.57
55733;BME280;41637;52.364;9.910;2023-04-08T05:41:51;101598.42;;;5.83;92.76
55733;BME280;41637;52.364;9.910;2023-04-08T05:44:17;101599.29;;;5.88;92.55
55733;BME280;41637;52.364;9.910;2023-04-08T05:46:44;101597.39;;;5.97;92.54
55733;BME280;41637;52.364;9.910;2023-04-08T05:49:11;101600.08;;;6.02;92.22
55733;BME280;41637;52.364;9.910;2023-04-08T05:51:38;101605.68;;;6.07;91.84
55733;BME280;41637;52.364;9.910;2023-04-08T05:54:04;101609.83;;;6.12;91.49
55733;BME280;41637;52.364;9.910;2023-04-08T05:56:31;101612.94;;;6.18;91.29
55733;BME280;41637;52.364;9.910;2023-04-08T05:59:00;101616.17;;;6.21;91.05
55733;BME280;41637;52.364;9.910;2023-04-08T06:01:26;101619.23;;;6.23;90.71
55733;BME280;41637;52.364;9.910;2023-04-08T06:03:53;101620.26;;;6.23;90.88
55733;BME280;41637;52.364;9.910;2023-04-08T06:06:22;101622.23;;;6.22;90.90
55733;BME280;41637;52.364;9.910;2023-04-08T06:08:48;101620.11;;;6.18;90.82
55733;BME280;41637;52.364;9.910;2023-04-08T06:11:16;101621.95;;;6.21;90.89
55733;BME280;41637;52.364;9.910;2023-04-08T06:13:42;101627.63;;;6.27;90.94
55733;BME280;41637;52.364;9.910;2023-04-08T06:16:15;101631.55;;;6.33;90.59
55733;BME280;41637;52.364;9.910;2023-04-08T06:18:47;101635.27;;;6.37;90.18
55733;BME280;41637;52.364;9.910;2023-04-08T06:21:14;101634.98;;;6.36;90.29
55733;BME280;41637;52.364;9.910;2023-04-08T06:23:41;101633.36;;;6.28;90.55
55733;BME280;41637;52.364;9.910;2023-04-08T06:26:08;101632.36;;;6.25;90.65
55733;BME280;41637;52.364;9.910;2023-04-08T06:28:34;101637.63;;;6.27;90.70
55733;BME280;41637;52.364;9.910;2023-04-08T06:31:01;101638.30;;;6.30;90.58
55733;BME280;41637;52.364;9.910;2023-04-08T06:33:27;101638.92;;;6.37;90.66
55733;BME280;41637;52.364;9.910;2023-04-08T06:36:03;101642.39;;;6.44;90.35
55733;BME280;41637;52.364;9.910;2023-04-08T06:38:31;101637.64;;;6.53;90.04
55733;BME280;41637;52.364;9.910;2023-04-08T06:41:02;101644.02;;;6.63;89.75
55733;BME280;41637;52.364;9.910;2023-04-08T06:43:29;101651.75;;;6.71;89.48
55733;BME280;41637;52.364;9.910;2023-04-08T06:45:56;101649.98;;;6.78;89.04
55733;BME280;41637;52.364;9.910;2023-04-08T06:48:23;101654.52;;;6.83;88.64
55733;BME280;41637;52.364;9.910;2023-04-08T06:50:55;101660.70;;;6.87;88.27
55733;BME280;41637;52.364;9.910;2023-04-08T06:53:26;101662.89;;;6.84;88.27
55733;BME280;41637;52.364;9.910;2023-04-08T06:55:58;101665.48;;;6.80;88.17
55733;BME280;41637;52.364;9.910;2023-04-08T06:58:25;101665.46;;;6.83;88.52
55733;BME280;41637;52.364;9.910;2023-04-08T07:00:53;101663.93;;;6.84;88.36
55733;BME280;41637;52.364;9.910;2023-04-08T07:03:21;101670.81;;;6.77;88.45
55733;BME280;41637;52.364;9.910;2023-04-08T07:05:48;101673.96;;;6.71;88.84
55733;BME280;41637;52.364;9.910;2023-04-08T07:08:15;101672.61;;;6.75;88.80
55733;BME280;41637;52.364;9.910;2023-04-08T07:10:42;101671.61;;;6.85;88.93
55733;BME280;41637;52.364;9.910;2023-04-08T07:13:09;101674.08;;;6.95;88.54
55733;BME280;41637;52.364;9.910;2023-04-08T07:15:36;101671.42;;;7.04;88.35
55733;BME280;41637;52.364;9.910;2023-04-08T07:18:02;101674.95;;;7.12;88.01
55733;BME280;41637;52.364;9.910;2023-04-08T07:20:30;101676.77;;;7.18;87.46
55733;BME280;41637;52.364;9.910;2023-04-08T07:22:57;101673.71;;;7.21;87.63
55733;BME280;41637;52.364;9.910;2023-04-08T07:25:24;101679.77;;;7.18;87.05
55733;BME280;41637;52.364;9.910;2023-04-08T07:27:51;101680.39;;;7.15;86.91
55733;BME280;41637;52.364;9.910;2023-04-08T07:30:18;101681.66;;;7.16;87.21
55733;BME280;41637;52.364;9.910;2023-04-08T07:32:45;101682.23;;;7.07;87.30
55733;BME280;41637;52.364;9.910;2023-04-08T07:35:12;101683.60;;;6.99;87.97
55733;BME280;41637;52.364;9.910;2023-04-08T07:37:39;101685.60;;;6.99;87.98
55733;BME280;41637;52.364;9.910;2023-04-08T07:40:06;101683.96;;;6.92;88.31
55733;BME280;41637;52.364;9.910;2023-04-08T07:42:33;101686.50;;;6.89;88.38
55733;BME280;41637;52.364;9.910;2023-04-08T07:45:00;101687.44;;;6.95;88.40
55733;BME280;41637;52.364;9.910;2023-04-08T07:47:28;101690.52;;;7.03;88.76
55733;BME280;41637;52.364;9.910;2023-04-08T07:49:55;101690.71;;;7.09;88.03
55733;BME280;41637;52.364;9.910;2023-04-08T07:52:21;101691.02;;;7.18;87.92
55733;BME280;41637;52.364;9.910;2023-04-08T07:54:48;101692.52;;;7.15;87.74
55733;BME280;41637;52.364;9.910;2023-04-08T07:57:15;101693.64;;;7.14;87.70
55733;BME280;41637;52.364;9.910;2023-04-08T07:59:42;101693.90;;;7.21;87.51
55733;BME280;41637;52.364;9.910;2023-04-08T08:02:08;101696.86;;;7.26;87.51
55733;BME280;41637;52.364;9.910;2023-04-08T08:04:35;101701.27;;;7.30;87.25
55733;BME280;41637;52.364;9.910;2023-04-08T08:07:02;101704.55;;;7.33;87.26
55733;BME280;41637;52.364;9.910;2023-04-08T08:09:29;101707.17;;;7.33;87.08
55733;BME280;41637;52.364;9.910;2023-04-08T08:11:57;101705.15;;;7.32;87.26
55733;BME280;41637;52.364;9.910;2023-04-08T08:14:24;101708.80;;;7.28;87.60
55733;BME280;41637;52.364;9.910;2023-04-08T08:16:52;101712.87;;;7.32;87.45
55733;BME280;41637;52.364;9.910;2023-04-08T08:19:20;101717.41;;;7.39;87.43
55733;BME280;41637;52.364;9.910;2023-04-08T08:21:47;101720.25;;;7.43;87.48
55733;BME280;41637;52.364;9.910;2023-04-08T08:24:14;101720.50;;;7.48;87.17
55733;BME280;41637;52.364;9.910;2023-04-08T08:26:41;101729.56;;;7.58;87.22
55733;BME280;41637;52.364;9.910;2023-04-08T08:29:10;101731.36;;;7.68;86.67
55733;BME280;41637;52.364;9.910;2023-04-08T08:31:37;101733.52;;;7.78;86.99
55733;BME280;41637;52.364;9.910;2023-04-08T08:34:04;101731.76;;;7.88;86.23
55733;BME280;41637;52.364;9.910;2023-04-08T08:36:31;101735.43;;;8.00;86.11
55733;BME280;41637;52.364;9.910;2023-04-08T08:39:00;101731.06;;;8.12;85.66
55733;BME280;41637;52.364;9.910;2023-04-08T08:41:32;101729.70;;;8.26;84.86
55733;BME280;41637;52.364;9.910;2023-04-08T08:43:59;101731.16;;;8.40;84.74
55733;BME280;41637;52.364;9.910;2023-04-08T08:46:26;101727.95;;;8.42;83.61
55733;BME280;41637;52.364;9.910;2023-04-08T08:48:53;101727.30;;;8.39;83.23
55733;BME280;41637;52.364;9.910;2023-04-08T08:51:20;101734.71;;;8.33;83.07
55733;BME280;41637;52.364;9.910;2023-04-08T08:53:47;101739.48;;;8.23;83.24
55733;BME280;41637;52.364;9.910;2023-04-08T08:56:13;101741.85;;;8.26;83.55
55733;BME280;41637;52.364;9.910;2023-04-08T08:58:43;101745.61;;;8.31;83.42
55733;BME280;41637;52.364;9.910;2023-04-08T09:01:30;101753.02;;;8.37;83.26
55733;BME280;41637;52.364;9.910;2023-04-08T09:06:36;101754.23;;;8.48;83.17
55733;BME280;41637;52.364;9.910;2023-04-08T09:09:03;101757.04;;;8.52;82.66
55733;BME280;41637;52.364;9.910;2023-04-08T09:11:44;101765.09;;;8.55;82.54
55733;BME280;41637;52.364;9.910;2023-04-08T09:16:44;101763.04;;;8.62;82.26
55733;BME280;41637;52.364;9.910;2023-04-08T09:19:11;101764.04;;;8.67;82.13
55733;BME280;41637;52.364;9.910;2023-04-08T09:21:39;101766.79;;;8.66;81.79
55733;BME280;41637;52.364;9.910;2023-04-08T09:24:25;101772.89;;;8.68;81.91
55733;BME280;41637;52.364;9.910;2023-04-08T09:26:52;101773.17;;;8.73;81.95
55733;BME280;41637;52.364;9.910;2023-04-08T09:29:22;101775.35;;;8.73;81.64
55733;BME280;41637;52.364;9.910;2023-04-08T09:31:56;101778.02;;;8.70;81.43
55733;BME280;41637;52.364;9.910;2023-04-08T09:34:24;101777.00;;;8.64;81.34
55733;BME280;41637;52.364;9.910;2023-04-08T09:36:53;101774.45;;;8.57;81.76
55733;BME280;41637;52.364;9.910;2023-04-08T09:39:21;101771.25;;;8.49;81.89
55733;BME280;41637;52.364;9.910;2023-04-08T09:41:49;101775.44;;;8.43;82.04
55733;BME280;41637;52.364;9.910;2023-04-08T09:44:20;101779.48;;;8.52;82.66
55733;BME280;41637;52.364;9.910;2023-04-08T09:47:00;101781.41;;;8.66;82.05
55733;BME280;41637;52.364;9.910;2023-04-08T09:49:39;101780.73;;;8.79;82.15
55733;BME280;41637;52.364;9.910;2023-04-08T09:52:32;101783.18;;;8.78;81.22
55733;BME280;41637;52.364;9.910;2023-04-08T09:55:02;101785.55;;;8.71;81.52
55733;BME280;41637;52.364;9.910;2023-04-08T09:57:40;101794.27;;;8.78;81.84
55733;BME280;41637;52.364;9.910;2023-04-08T10:00:16;101794.09;;;8.86;81.68
55733;BME280;41637;52.364;9.910;2023-04-08T10:02:59;101789.62;;;8.92;81.71
55733;BME280;41637;52.364;9.910;2023-04-08T10:05:28;101795.70;;;9.04;81.47
55733;BME280;41637;52.364;9.910;2023-04-08T10:07:56;101791.45;;;9.12;80.86
55733;BME280;41637;52.364;9.910;2023-04-08T10:10:23;101784.58;;;9.17;80.76
55733;BME280;41637;52.364;9.910;2023-04-08T10:12:52;101786.46;;;9.10;80.10
55733;BME280;41637;52.364;9.910;2023-04-08T10:15:32;101797.41;;;9.06;80.03
55733;BME280;41637;52.364;9.910;2023-04-08T10:23:06;101789.73;;;9.17;80.33
55733;BME280;41637;52.364;9.910;2023-04-08T10:25:39;101790.59;;;9.21;79.83
55733;BME280;41637;52.364;9.910;2023-04-08T10:30:55;101791.27;;;9.31;79.98
55733;BME280;41637;52.364;9.910;2023-04-08T10:33:30;101793.48;;;9.40;79.78
55733;BME280;41637;52.364;9.910;2023-04-08T10:38:32;101794.95;;;9.42;78.92
55733;BME280;41637;52.364;9.910;2023-04-08T10:40:59;101792.60;;;9.42;78.86
55733;BME280;41637;52.364;9.910;2023-04-08T10:43:31;101792.29;;;9.45;78.72
55733;BME280;41637;52.364;9.910;2023-04-08T10:45:58;101795.05;;;9.38;78.47
55733;BME280;41637;52.364;9.910;2023-04-08T10:48:25;101791.45;;;9.31;78.45
55733;BME280;41637;52.364;9.910;2023-04-08T10:50:59;101796.05;;;9.37;78.73
55733;BME280;41637;52.364;9.910;2023-04-08T10:53:30;101792.20;;;9.38;78.59
55733;BME280;41637;52.364;9.910;2023-04-08T10:56:09;101793.42;;;9.36;78.41
55733;BME280;41637;52.364;9.910;2023-04-08T10:58:54;101789.89;;;9.38;78.79
55733;BME280;41637;52.364;9.910;2023-04-08T11:01:22;101795.75;;;9.44;78.78
55733;BME280;41637;52.364;9.910;2023-04-08T11:03:49;101793.33;;;9.46;78.86
55733;BME280;41637;52.364;9.910;2023-04-08T11:06:17;101792.45;;;9.44;78.56
55733;BME280;41637;52.364;9.910;2023-04-08T11:08:44;101794.08;;;9.41;78.45
55733;BME280;41637;52.364;9.910;2023-04-08T11:11:13;101794.22;;;9.42;78.93
55733;BME280;41637;52.364;9.910;2023-04-08T11:13:42;101800.28;;;9.49;78.95
55733;BME280;41637;52.364;9.910;2023-04-08T11:16:19;101803.05;;;9.55;78.69
55733;BME280;41637;52.364;9.910;2023-04-08T11:18:47;101807.41;;;9.54;78.52
55733;BME280;41637;52.364;9.910;2023-04-08T11:21:14;101806.16;;;9.54;78.38
55733;BME280;41637;52.364;9.910;2023-04-08T11:23:41;101803.31;;;9.58;78.60
55733;BME280;41637;52.364;9.910;2023-04-08T11:26:09;101807.05;;;9.61;78.39
55733;BME280;41637;52.364;9.910;2023-04-08T11:28:36;101807.67;;;9.64;78.25
55733;BME280;41637;52.364;9.910;2023-04-08T11:31:04;101806.64;;;9.68;78.31
55733;BME280;41637;52.364;9.910;2023-04-08T11:33:31;101802.80;;;9.71;78.13
55733;BME280;41637;52.364;9.910;2023-04-08T11:36:00;101807.01;;;9.71;77.64
55733;BME280;41637;52.364;9.910;2023-04-08T11:38:27;101811.83;;;9.67;77.65
55733;BME280;41637;52.364;9.910;2023-04-08T11:40:58;101815.88;;;9.63;77.42
55733;BME280;41637;52.364;9.910;2023-04-08T11:43:25;101815.20;;;9.57;77.49
55733;BME280;41637;52.364;9.910;2023-04-08T11:45:52;101824.05;;;9.53;77.69
55733;BME280;41637;52.364;9.910;2023-04-08T11:48:19;101823.50;;;9.48;77.99
55733;BME280;41637;52.364;9.910;2023-04-08T11:50:46;101825.97;;;9.44;77.98
55733;BME280;41637;52.364;9.910;2023-04-08T11:53:18;101825.38;;;9.43;77.99
55733;BME280;41637;52.364;9.910;2023-04-08T11:55:46;101822.45;;;9.42;78.02
55733;BME280;41637;52.364;9.910;2023-04-08T11:58:14;101822.16;;;9.41;78.41
55733;BME280;41637;52.364;9.910;2023-04-08T12:00:41;101819.23;;;9.42;78.20
55733;BME280;41637;52.364;9.910;2023-04-08T12:03:09;101820.39;;;9.45;78.46
55733;BME280;41637;52.364;9.910;2023-04-08T12:05:36;101819.09;;;9.49;78.03
55733;BME280;41637;52.364;9.910;2023-04-08T12:08:03;101818.59;;;9.53;78.34
55733;BME280;41637;52.364;9.910;2023-04-08T12:10:30;101820.91;;;9.55;78.03
55733;BME280;41637;52.364;9.910;2023-04-08T12:12:57;101822.59;;;9.57;78.07
55733;BME280;41637;52.364;9.910;2023-04-08T12:15:23;101830.75;;;9.63;78.12
55733;BME280;41637;52.364;9.910;2023-04-08T12:17:50;101823.55;;;9.66;77.77
55733;BME280;41637;52.364;9.910;2023-04-08T12:20:17;101822.88;;;9.66;77.61
55733;BME280;41637;52.364;9.910;2023-04-08T12:22:44;101828.27;;;9.61;77.81
55733;BME280;41637;52.364;9.910;2023-04-08T12:25:10;101829.41;;;9.62;77.83
55733;BME280;41637;52.364;9.910;2023-04-08T12:27:37;101827.31;;;9.64;77.85
55733;BME280;41637;52.364;9.910;2023-04-08T12:30:04;101824.90;;;9.61;77.50
55733;BME280;41637;52.364;9.910;2023-04-08T12:32:31;101825.15;;;9.55;77.95
55733;BME280;41637;52.364;9.910;2023-04-08T12:34:57;101819.17;;;9.49;78.56
55733;BME280;41637;52.364;9.910;2023-04-08T12:37:24;101818.40;;;9.48;78.59
55733;BME280;41637;52.364;9.910;2023-04-08T12:39:51;101822.48;;;9.51;78.58
55733;BME280;41637;52.364;9.910;2023-04-08T12:42:17;101823.20;;;9.53;78.33
55733;BME280;41637;52.364;9.910;2023-04-08T12:44:44;101827.15;;;9.52;78.65
55733;BME280;41637;52.364;9.910;2023-04-08T12:47:10;101829.77;;;9.56;78.89
55733;BME280;41637;52.364;9.910;2023-04-08T12:49:37;101828.02;;;9.62;78.49
55733;BME280;41637;52.364;9.910;2023-04-08T12:52:07;101825.45;;;9.67;78.29
55733;BME280;41637;52.364;9.910;2023-04-08T12:54:34;101826.59;;;9.70;78.07
55733;BME280;41637;52.364;9.910;2023-04-08T12:57:01;101824.39;;;9.71;78.12
55733;BME280;41637;52.364;9.910;2023-04-08T12:59:28;101821.29;;;9.72;77.80
55733;BME280;41637;52.364;9.910;2023-04-08T13:01:55;101820.64;;;9.73;77.64
55733;BME280;41637;52.364;9.910;2023-04-08T13:04:22;101817.89;;;9.80;77.78
55733;BME280;41637;52.364;9.910;2023-04-08T13:06:48;101819.41;;;9.78;77.32
55733;BME280;41637;52.364;9.910;2023-04-08T13:09:15;101815.21;;;9.63;77.65
55733;BME280;41637;52.364;9.910;2023-04-08T13:11:42;101811.34;;;9.53;77.94
55733;BME280;41637;52.364;9.910;2023-04-08T13:14:08;101809.06;;;9.53;78.04
55733;BME280;41637;52.364;9.910;2023-04-08T13:16:35;101809.98;;;9.62;78.48
55733;BME280;41637;52.364;9.910;2023-04-08T13:19:02;101812.06;;;9.70;78.21
55733;BME280;41637;52.364;9.910;2023-04-08T13:21:29;101814.59;;;9.83;78.18
55733;BME280;41637;52.364;9.910;2023-04-08T13:23:57;101816.19;;;9.92;77.77
55733;BME280;41637;52.364;9.910;2023-04-08T13:26:23;101818.45;;;9.97;77.61
55733;BME280;41637;52.364;9.910;2023-04-08T13:28:50;101819.20;;;10.04;77.66